Time;durP1;ratioP1;P1;durP2;ratioP2;P2;SDS_P1;SDS_P2;PMS_P1;PMS_P2;Temp;Humidity;BMP_temperature;BMP_pressure;BME280_temperature;BME280_humidity;BME280_pressure;Samples;Min_cycle;Max_cycle;Signal;HPM_P1;HPM_P2
2022/07/10 00:00:31;;;;;;;9.80;2.30;;;;;;;12.38;75.65;101492.84;7395900;19;20035;-69
2022/07/10 00:03:00;;;;;;;6.68;1.50;;;;;;;12.39;75.65;101489.31;7395825;19;20047;-69
2022/07/10 00:05:29;;;;;;;3.63;1.20;;;;;;;12.39;75.63;101486.69;7397150;19;20023;-69
2022/07/10 00:07:58;;;;;;;8.00;1.52;;;;;;;12.39;75.32;101492.81;7395705;19;20019;-69
2022/07/10 00:10:29;;;;;;;7.63;1.45;;;;;;;12.38;74.94;101484.94;7396195;19;20022;-70
2022/07/10 00:12:58;;;;;;;4.65;0.93;;;;;;;12.39;74.85;101490.16;7397795;19;20014;-69
2022/07/10 00:15:26;;;;;;;4.60;1.00;;;;;;;12.42;75.08;101493.66;7395306;19;20023;-68
2022/07/10 00:17:55;;;;;;;5.90;1.20;;;;;;;12.41;75.13;101487.53;7396785;19;20010;-68
2022/07/10 00:20:24;;;;;;;5.78;1.60;;;;;;;12.42;74.99;101485.75;7395500;19;20027;-69
2022/07/10 00:22:52;;;;;;;10.43;1.42;;;;;;;12.42;74.96;101489.25;7395713;19;20022;-67
2022/07/10 00:25:21;;;;;;;5.38;1.30;;;;;;;12.42;74.83;101489.25;7396482;19;20111;-68
2022/07/10 00:27:52;;;;;;;5.88;1.20;;;;;;;12.44;74.67;101483.97;7396857;19;20022;-69
2022/07/10 00:30:20;;;;;;;7.53;1.10;;;;;;;12.45;74.16;101486.59;7396014;19;20086;-69
2022/07/10 00:32:49;;;;;;;8.80;1.48;;;;;;;12.46;74.61;101484.81;7394538;19;20019;-69
2022/07/10 00:35:17;;;;;;;7.60;1.33;;;;;;;12.47;74.65;101476.91;7392072;19;20082;-68
2022/07/10 00:37:46;;;;;;;7.28;1.52;;;;;;;12.49;74.29;101480.34;7395371;19;20018;-69
2022/07/10 00:40:14;;;;;;;6.80;1.05;;;;;;;12.50;74.43;101473.34;7394888;19;20126;-68
2022/07/10 00:42:43;;;;;;;10.30;1.27;;;;;;;12.51;74.53;101480.31;7394549;19;20086;-68
2022/07/10 00:45:14;;;;;;;5.95;1.33;;;;;;;12.52;74.26;101474.16;7394216;19;20031;-69
2022/07/10 00:47:43;;;;;;;7.00;1.20;;;;;;;12.53;74.46;101476.75;7395610;19;20082;-69
2022/07/10 00:50:12;;;;;;;6.45;1.20;;;;;;;12.52;74.06;101472.44;7394861;19;20032;-68
2022/07/10 00:52:41;;;;;;;7.90;1.40;;;;;;;12.55;74.16;101469.72;7395511;19;20041;-68
2022/07/10 00:55:12;;;;;;;5.95;1.63;;;;;;;12.55;74.36;101471.50;7393942;19;20022;-68
2022/07/10 00:57:41;;;;;;;9.98;1.27;;;;;;;12.58;74.43;101473.22;7396126;19;20025;-69
2022/07/10 01:00:14;;;;;;;12.48;1.75;;;;;;;12.58;73.97;101467.94;7393712;19;20414;-70
2022/07/10 01:02:44;;;;;;;7.07;1.30;;;;;;;12.57;74.10;101482.00;7394868;19;20365;-69
2022/07/10 01:05:13;;;;;;;8.50;1.35;;;;;;;12.58;73.54;101470.56;7395502;19;20014;-68
2022/07/10 01:07:42;;;;;;;6.72;0.98;;;;;;;12.59;74.04;101467.06;7395083;19;20019;-68
2022/07/10 01:10:11;;;;;;;6.10;1.02;;;;;;;12.61;73.98;101467.88;7394227;19;20074;-69
2022/07/10 01:12:47;;;;;;;7.47;1.35;;;;;;;12.59;73.80;101464.41;7395386;19;20018;-69
2022/07/10 01:15:18;;;;;;;7.40;1.23;;;;;;;12.62;73.55;101459.94;7394704;19;20092;-69
2022/07/10 01:17:48;;;;;;;6.15;1.17;;;;;;;12.64;73.69;101466.06;7393779;19;20427;-69
2022/07/10 01:20:17;;;;;;;5.97;0.95;;;;;;;12.66;73.65;101463.38;7394303;19;20025;-69
2022/07/10 01:22:55;;;;;;;4.95;1.10;;;;;;;12.66;73.12;101460.75;7391850;19;20014;-69
2022/07/10 01:25:30;;;;;;;6.18;1.00;;;;;;;12.66;73.55;101464.28;7393513;19;20074;-69
2022/07/10 01:27:58;;;;;;;7.82;1.15;;;;;;;12.68;73.49;101453.69;7394895;19;20032;-69
2022/07/10 01:30:27;;;;;;;8.60;1.27;;;;;;;12.69;73.54;101460.72;7392729;19;20035;-69
2022/07/10 01:32:56;;;;;;;8.57;1.30;;;;;;;12.70;73.64;101467.69;7394493;19;20014;-68
2022/07/10 01:35:25;;;;;;;11.40;1.48;;;;;;;12.69;73.40;101448.41;7392413;19;20419;-67
2022/07/10 01:37:56;;;;;;;4.15;0.90;;;;;;;12.68;73.35;101454.56;7392500;19;20031;-68
2022/07/10 01:40:24;;;;;;;7.63;1.10;;;;;;;12.69;73.50;101458.94;7392986;19;20039;-68
2022/07/10 01:42:53;;;;;;;4.03;0.98;;;;;;;12.69;73.23;101452.81;7392635;19;20022;-68
2022/07/10 01:45:21;;;;;;;5.05;0.88;;;;;;;12.67;73.00;101442.28;7392101;19;20392;-68
2022/07/10 01:47:50;;;;;;;5.07;1.10;;;;;;;12.67;73.18;101451.97;7398401;19;20018;-68
2022/07/10 01:50:18;;;;;;;4.78;0.90;;;;;;;12.66;73.05;101444.97;7399853;19;20018;-68
2022/07/10 01:52:47;;;;;;;9.73;1.15;;;;;;;12.66;73.00;101450.22;7401692;19;20019;-68
2022/07/10 01:55:18;;;;;;;6.32;1.20;;;;;;;12.64;73.22;101442.34;7398717;19;20042;-68
2022/07/10 01:57:47;;;;;;;7.13;1.23;;;;;;;12.64;73.12;101458.16;7401307;19;20023;-68
2022/07/10 02:00:16;;;;;;;7.07;1.30;;;;;;;12.61;73.29;101457.34;7398691;19;20480;-68
2022/07/10 02:04:40;;;;;;;3.83;1.15;;;;;;;12.61;73.24;101459.97;7401042;19;20014;-68
2022/07/10 02:05:31;;;;;;;7.55;1.00;;;;;;;12.62;73.20;101459.09;7400655;19;20502;-68
2022/07/10 02:08:00;;;;;;;4.18;1.17;;;;;;;12.63;73.10;101460.81;7401152;19;20006;-68
2022/07/10 02:10:31;;;;;;;7.75;1.23;;;;;;;12.63;73.22;101455.56;7399262;19;20425;-68
2022/07/10 02:13:00;;;;;;;9.63;2.20;;;;;;;12.62;73.30;101453.81;7401470;19;20035;-68
2022/07/10 02:15:28;;;;;;;6.15;0.90;;;;;;;12.62;73.42;101443.28;7399829;19;20030;-68
2022/07/10 02:17:57;;;;;;;3.75;0.60;;;;;;;12.62;73.49;101448.56;7400860;19;20021;-68
2022/07/10 02:20:25;;;;;;;4.05;0.80;;;;;;;12.59;73.28;101446.00;7398588;19;20022;-68
2022/07/10 02:22:54;;;;;;;7.15;1.05;;;;;;;12.58;73.45;101437.22;7397920;19;20016;-68
2022/07/10 02:25:23;;;;;;;7.18;0.95;;;;;;;12.58;73.41;101439.00;7401012;19;20039;-68
2022/07/10 02:27:54;;;;;;;8.18;1.00;;;;;;;12.56;73.44;101431.09;7400877;19;20018;-68
2022/07/10 02:30:22;;;;;;;3.25;0.82;;;;;;;12.54;73.70;101430.28;7399316;19;20022;-68
2022/07/10 02:32:51;;;;;;;7.03;1.42;;;;;;;12.53;73.54;101428.53;7397668;19;20074;-68
2022/07/10 02:35:20;;;;;;;6.80;1.05;;;;;;;12.50;73.41;101424.19;7399446;19;20035;-68
2022/07/10 02:37:48;;;;;;;7.60;0.90;;;;;;;12.50;73.36;101424.19;7400151;19;20027;-68
2022/07/10 02:40:17;;;;;;;6.00;0.77;;;;;;;12.49;73.52;101421.59;7398482;19;20387;-68
2022/07/10 02:42:45;;;;;;;5.65;0.95;;;;;;;12.47;73.47;101428.66;7400741;19;20023;-68
2022/07/10 02:45:16;;;;;;;4.57;1.20;;;;;;;12.45;73.52;101410.25;7397353;19;20015;-68
2022/07/10 02:47:45;;;;;;;4.60;0.90;;;;;;;12.46;73.57;101421.63;7400265;19;20022;-68
2022/07/10 02:50:13;;;;;;;6.88;0.93;;;;;;;12.43;73.51;101412.03;7397117;19;20027;-68
2022/07/10 02:52:42;;;;;;;3.42;0.80;;;;;;;12.40;73.59;101417.38;7399712;19;20032;-68
2022/07/10 02:55:11;;;;;;;4.97;0.65;;;;;;;12.37;73.63;101402.50;7397044;19;20027;-68
2022/07/10 02:57:40;;;;;;;2.35;0.50;;;;;;;12.38;73.55;101411.25;7397401;19;20432;-67
2022/07/10 03:00:10;;;;;;;7.78;1.17;;;;;;;12.37;73.69;101412.16;7397225;19;20035;-68
2022/07/10 03:02:41;;;;;;;3.53;0.70;;;;;;;12.35;73.36;101425.34;7399343;19;20361;-68
2022/07/10 03:05:10;;;;;;;4.68;0.75;;;;;;;12.35;73.35;101414.81;7397429;19;20035;-69
2022/07/10 03:07:39;;;;;;;4.05;1.00;;;;;;;12.35;73.86;101420.09;7400443;19;20021;-68
2022/07/10 03:10:08;;;;;;;7.97;0.95;;;;;;;12.33;73.21;101421.00;7398254;19;20078;-68
2022/07/10 03:12:37;;;;;;;3.78;0.50;;;;;;;12.34;73.80;101413.06;7398977;19;20014;-67
2022/07/10 03:15:06;;;;;;;5.97;0.88;;;;;;;12.35;73.70;101416.59;7396890;19;20022;-68
2022/07/10 03:17:35;;;;;;;5.43;0.80;;;;;;;12.35;73.79;101420.09;7399297;19;20014;-68
2022/07/10 03:20:08;;;;;;;5.00;0.93;;;;;;;12.36;73.78;101426.22;7396405;19;20022;-68
2022/07/10 03:22:37;;;;;;;5.70;0.93;;;;;;;12.37;74.13;101417.41;7395874;19;20011;-68
2022/07/10 03:25:07;;;;;;;3.70;0.70;;;;;;;12.37;74.21;101420.94;7396202;19;20486;-68
2022/07/10 03:27:35;;;;;;;3.13;0.60;;;;;;;12.38;73.98;101414.78;7396757;19;20023;-68
2022/07/10 03:30:05;;;;;;;6.15;0.90;;;;;;;12.38;74.07;101413.91;7396226;19;20018;-68
2022/07/10 03:32:33;;;;;;;4.32;0.57;;;;;;;12.38;74.30;101416.53;7398381;19;20015;-68
2022/07/10 03:35:02;;;;;;;5.35;0.70;;;;;;;12.36;74.46;101413.06;7397877;19;20007;-69
2022/07/10 03:37:33;;;;;;;4.18;0.60;;;;;;;12.37;74.59;101412.16;7396383;19;20022;-69
2022/07/10 03:40:01;;;;;;;4.88;0.75;;;;;;;12.37;74.62;101406.88;7396994;19;20073;-69
2022/07/10 03:42:30;;;;;;;4.50;0.80;;;;;;;12.36;75.06;101423.59;7395718;19;20489;-69
2022/07/10 03:44:58;;;;;;;3.45;0.75;;;;;;;12.33;75.07;101411.38;7395370;19;20380;-68
2022/07/10 03:47:27;;;;;;;6.95;0.85;;;;;;;12.31;75.32;101404.38;7395526;19;20015;-69
2022/07/10 03:49:55;;;;;;;6.00;1.52;;;;;;;12.29;75.59;101404.41;7396733;19;20383;-68
2022/07/10 03:52:24;;;;;;;2.65;0.65;;;;;;;12.30;75.70;101405.28;7398549;19;20039;-68
2022/07/10 03:54:56;;;;;;;3.03;0.77;;;;;;;12.29;75.54;101400.91;7397580;19;20032;-69
2022/07/10 04:00:07;;;;;;;4.57;0.75;;;;;;;12.27;75.80;101398.31;7397065;19;20018;-68
2022/07/10 04:02:36;;;;;;;3.22;0.63;;;;;;;12.26;75.79;101393.94;7397863;19;20418;-68
2022/07/10 04:05:08;;;;;;;4.43;0.75;;;;;;;12.26;76.03;101390.44;7395427;19;20513;-68
2022/07/10 04:07:36;;;;;;;4.25;0.80;;;;;;;12.25;76.08;101399.25;7397956;19;20014;-69
2022/07/10 04:10:09;;;;;;;2.20;0.50;;;;;;;12.25;76.08;101401.88;7395896;19;20408;-68
2022/07/10 04:12:37;;;;;;;4.95;1.08;;;;;;;12.26;76.00;101399.22;7396000;19;20022;-68
2022/07/10 04:15:07;;;;;;;8.13;1.50;;;;;;;12.26;76.30;101393.94;7397096;19;20119;-69
2022/07/10 04:17:36;;;;;;;4.95;0.80;;;;;;;12.28;76.27;101394.78;7396936;19;20493;-68
2022/07/10 04:20:05;;;;;;;5.38;0.82;;;;;;;12.30;76.26;101389.50;7395835;19;20484;-69
2022/07/10 04:22:34;;;;;;;7.10;1.02;;;;;;;12.31;76.29;101391.22;7394951;19;20395;-68
2022/07/10 04:25:02;;;;;;;2.83;0.70;;;;;;;12.32;76.27;101395.59;7396966;19;20022;-69
2022/07/10 04:27:33;;;;;;;4.82;1.00;;;;;;;12.32;76.28;101409.63;7397072;19;20014;-69
2022/07/10 04:30:02;;;;;;;4.05;1.23;;;;;;;12.29;76.43;101403.56;7395779;19;20027;-68
2022/07/10 04:32:31;;;;;;;3.30;1.02;;;;;;;12.29;76.33;101398.28;7395143;19;20018;-69
2022/07/10 04:35:00;;;;;;;6.25;1.08;;;;;;;12.29;76.67;101406.19;7394594;19;20006;-68
2022/07/10 04:37:29;;;;;;;5.88;2.40;;;;;;;12.28;76.59;101401.81;7394732;19;20023;-68
2022/07/10 04:39:58;;;;;;;3.90;1.08;;;;;;;12.29;76.75;101399.13;7395679;19;20032;-68
2022/07/10 04:42:27;;;;;;;6.35;1.55;;;;;;;12.29;76.82;101388.63;7396465;19;20018;-68
2022/07/10 04:44:58;;;;;;;6.57;1.23;;;;;;;12.30;76.74;101400.03;7396408;19;20026;-68
2022/07/10 04:47:26;;;;;;;4.93;1.30;;;;;;;12.29;76.63;101400.91;7397247;19;20035;-68
2022/07/10 04:49:55;;;;;;;7.50;1.02;;;;;;;12.30;76.82;101403.50;7395488;19;20039;-69
2022/07/10 04:52:24;;;;;;;4.97;0.95;;;;;;;12.33;76.68;101405.22;7394704;19;20082;-68
2022/07/10 04:54:52;;;;;;;3.90;0.85;;;;;;;12.35;76.79;101403.44;7396039;19;20026;-69
2022/07/10 04:57:21;;;;;;;3.33;0.80;;;;;;;12.41;76.63;101407.72;7394523;19;20026;-68
2022/07/10 04:59:49;;;;;;;6.00;1.08;;;;;;;12.45;76.57;101407.63;7394123;19;20022;-68
2022/07/10 05:02:20;;;;;;;6.15;1.13;;;;;;;12.49;76.65;101409.28;7394320;19;20089;-69
2022/07/10 05:04:49;;;;;;;5.15;1.17;;;;;;;12.51;76.32;101399.63;7395480;19;20014;-68
2022/07/10 05:07:17;;;;;;;4.53;1.10;;;;;;;12.54;76.28;101396.06;7394015;19;20023;-69
2022/07/10 05:09:46;;;;;;;5.20;0.90;;;;;;;12.55;76.21;101387.28;7394699;19;20552;-70
2022/07/10 05:12:14;;;;;;;6.80;1.00;;;;;;;12.57;76.06;101387.22;7395160;19;20018;-68
2022/07/10 05:14:43;;;;;;;3.22;0.80;;;;;;;12.60;76.15;101395.06;7395504;19;20107;-68
2022/07/10 05:17:11;;;;;;;1.88;0.82;;;;;;;12.61;75.95;101400.31;7393562;19;20015;-68
2022/07/10 05:19:42;;;;;;;7.68;1.10;;;;;;;12.60;75.54;101421.38;7394526;19;20022;-69
2022/07/10 05:22:11;;;;;;;4.45;1.13;;;;;;;12.61;75.83;101400.31;7393823;19;20074;-69
2022/07/10 05:24:39;;;;;;;4.25;0.90;;;;;;;12.63;76.01;101389.75;7393104;19;20493;-68
2022/07/10 05:27:08;;;;;;;8.80;1.27;;;;;;;12.68;76.05;101388.75;7395659;19;20045;-69
2022/07/10 05:29:37;;;;;;;5.78;1.02;;;;;;;12.68;75.36;101422.13;7394480;19;20078;-68
2022/07/10 05:32:06;;;;;;;5.35;1.15;;;;;;;12.71;75.62;101400.97;7394625;19;20011;-68
2022/07/10 05:34:35;;;;;;;2.17;0.70;;;;;;;12.70;75.42;101409.75;7394311;19;20010;-68
2022/07/10 05:37:07;;;;;;;3.42;0.80;;;;;;;12.70;75.44;101399.22;7393328;19;20076;-68
2022/07/10 05:39:36;;;;;;;1.83;0.65;;;;;;;12.70;75.70;101393.97;7393048;19;20049;-68
2022/07/10 05:42:05;;;;;;;7.85;1.30;;;;;;;12.71;75.41;101390.44;7394557;19;20018;-68
2022/07/10 05:44:33;;;;;;;4.82;1.00;;;;;;;12.73;75.37;101390.44;7394029;19;20434;-68
2022/07/10 05:47:02;;;;;;;5.50;1.23;;;;;;;12.74;75.23;101394.78;7394236;19;20031;-68
2022/07/10 05:49:32;;;;;;;4.32;0.80;;;;;;;12.76;74.96;101393.84;7393526;19;20484;-68
2022/07/10 05:52:00;;;;;;;4.35;1.73;;;;;;;12.77;74.65;101389.47;7394497;19;20022;-68
2022/07/10 05:54:31;;;;;;;4.93;1.60;;;;;;;12.79;74.91;101390.28;7392415;19;20019;-68
2022/07/10 05:57:00;;;;;;;5.15;1.13;;;;;;;12.80;74.73;101394.66;7392843;19;20465;-68
2022/07/10 05:59:29;;;;;;;4.93;0.88;;;;;;;12.81;74.50;101393.75;7392492;19;20380;-68
2022/07/10 06:01:57;;;;;;;5.93;1.13;;;;;;;12.80;74.43;101400.81;7394275;19;20417;-69
2022/07/10 06:04:26;;;;;;;5.88;1.13;;;;;;;12.82;74.63;101387.59;7393603;19;20078;-69
2022/07/10 06:06:55;;;;;;;4.95;1.15;;;;;;;12.85;74.08;101388.41;7392124;19;20039;-68
2022/07/10 06:09:23;;;;;;;5.18;1.73;;;;;;;12.88;73.37;101388.34;7391441;19;20418;-68
2022/07/10 06:11:54;;;;;;;5.88;1.10;;;;;;;12.96;73.60;101385.53;7393702;19;20466;-68
2022/07/10 06:14:23;;;;;;;3.70;1.02;;;;;;;13.02;72.67;101380.13;7391581;19;20018;-68
2022/07/10 06:16:51;;;;;;;5.57;1.00;;;;;;;13.12;72.59;101391.34;7391386;19;20507;-69
2022/07/10 06:19:20;;;;;;;6.53;1.00;;;;;;;13.18;71.96;101387.69;7391183;19;20018;-69
2022/07/10 06:22:29;;;;;;;3.08;1.08;;;;;;;13.23;71.80;101391.13;7393236;19;20513;-69
2022/07/10 06:24:43;;;;;;;3.65;0.98;;;;;;;13.28;71.98;101393.63;7390696;19;20011;-69
2022/07/10 06:27:14;;;;;;;9.02;1.58;;;;;;;13.29;70.13;101393.59;7391073;19;20015;-70
2022/07/10 06:29:43;;;;;;;4.32;1.33;;;;;;;13.34;71.12;101396.13;7393134;19;20066;-69
2022/07/10 06:32:12;;;;;;;6.13;1.08;;;;;;;13.39;70.65;101403.97;7393641;19;20019;-69
2022/07/10 06:34:40;;;;;;;6.63;1.23;;;;;;;13.43;70.49;101390.66;7396749;19;20014;-67
2022/07/10 06:37:09;;;;;;;4.88;1.08;;;;;;;13.44;68.50;101407.38;7398065;19;20035;-68
2022/07/10 06:39:37;;;;;;;6.75;1.27;;;;;;;13.43;69.74;101395.94;7399053;19;20018;-68
2022/07/10 06:42:07;;;;;;;3.78;0.93;;;;;;;13.53;70.07;101393.97;7397595;19;20032;-68
2022/07/10 06:44:38;;;;;;;3.65;1.55;;;;;;;13.63;69.63;101397.25;7397782;19;20086;-68
2022/07/10 06:49:50;;;;;;;7.15;0.90;;;;;;;13.79;68.62;101408.31;7400033;19;20017;-68
2022/07/10 06:52:19;;;;;;;7.60;1.00;;;;;;;13.81;67.72;101415.28;7400138;19;20015;-68
2022/07/10 06:54:48;;;;;;;3.55;1.08;;;;;;;13.83;67.30;101410.81;7397097;19;20418;-69
2022/07/10 06:57:18;;;;;;;4.70;0.95;;;;;;;13.87;67.25;101400.19;7397354;19;20082;-68
2022/07/10 06:59:49;;;;;;;4.95;1.10;;;;;;;13.97;67.33;101401.69;7398303;19;20019;-69
2022/07/10 07:02:25;;;;;;;6.25;1.20;;;;;;;14.11;67.66;101404.84;7396883;19;20014;-69
2022/07/10 07:04:53;;;;;;;7.15;1.80;;;;;;;14.23;66.36;101405.41;7399608;19;20031;-69
2022/07/10 07:07:22;;;;;;;4.03;0.80;;;;;;;14.29;66.55;101398.22;7397110;19;20039;-68
2022/07/10 07:09:51;;;;;;;5.10;0.88;;;;;;;14.32;65.91;101392.84;7398424;19;20014;-68
2022/07/10 07:12:20;;;;;;;4.10;0.75;;;;;;;14.32;65.85;101406.03;7396538;19;20018;-69
2022/07/10 07:14:51;;;;;;;3.90;0.90;;;;;;;14.29;65.37;101408.78;7396783;19;20015;-68
2022/07/10 07:17:25;;;;;;;4.65;1.25;;;;;;;14.31;66.29;101411.38;7397491;19;20021;-68
2022/07/10 07:25:16;;;;;;;7.55;1.17;;;;;;;14.36;66.02;101400.69;7399078;19;20486;-72
2022/07/10 07:27:44;;;;;;;5.55;1.40;;;;;;;14.36;65.21;101400.69;7398385;19;20481;-68
2022/07/10 07:30:17;;;;;;;4.00;0.98;;;;;;;14.38;64.69;101401.50;7396357;19;20098;-68
2022/07/10 07:32:47;;;;;;;5.75;1.20;;;;;;;14.44;66.04;101403.97;7395913;19;20361;-68
2022/07/10 07:35:18;;;;;;;5.93;1.35;;;;;;;14.52;66.09;101409.94;7396081;19;20014;-68
2022/07/10 07:37:48;;;;;;;5.63;2.35;;;;;;;14.56;65.37;101401.00;7396527;19;20082;-68
2022/07/10 07:40:19;;;;;;;5.45;1.73;;;;;;;14.62;65.78;101411.41;7396156;19;20026;-68
2022/07/10 07:42:48;;;;;;;4.90;1.23;;;;;;;14.64;65.19;101409.59;7398015;19;20010;-69
2022/07/10 07:45:20;;;;;;;7.07;1.30;;;;;;;14.67;65.16;101408.66;7396691;19;20102;-68
2022/07/10 07:47:50;;;;;;;6.20;1.20;;;;;;;14.65;64.35;101407.84;7397794;19;20078;-69
2022/07/10 07:50:19;;;;;;;8.20;1.45;;;;;;;14.66;65.22;101396.38;7396811;19;20029;-68
2022/07/10 07:52:48;;;;;;;6.47;1.05;;;;;;;14.63;64.12;101401.69;7397470;19;20023;-68
2022/07/10 07:55:18;;;;;;;7.85;1.35;;;;;;;14.60;65.07;101397.38;7397785;19;20081;-68
2022/07/10 07:57:48;;;;;;;7.80;1.08;;;;;;;14.59;65.08;101395.63;7396461;19;20022;-68
2022/07/10 08:00:22;;;;;;;6.53;1.15;;;;;;;14.61;65.50;101385.03;7396847;19;20048;-68
2022/07/10 08:02:51;;;;;;;6.80;1.17;;;;;;;14.69;65.34;101387.50;7398396;19;20040;-68
2022/07/10 08:05:20;;;;;;;5.70;1.58;;;;;;;14.73;63.96;101382.06;7395586;19;20011;-69
2022/07/10 08:07:52;;;;;;;6.15;1.42;;;;;;;14.78;63.62;101396.00;7397348;19;20082;-68
2022/07/10 08:10:23;;;;;;;5.45;1.02;;;;;;;14.78;63.89;101406.56;7396623;19;20018;-68
2022/07/10 08:12:52;;;;;;;8.15;1.65;;;;;;;14.63;63.49;101417.53;7397989;19;20035;-68
2022/07/10 08:15:24;;;;;;;6.93;1.50;;;;;;;14.55;64.19;101404.56;7397058;19;20022;-68
2022/07/10 08:17:55;;;;;;;7.20;2.05;;;;;;;14.46;65.38;101404.81;7395633;19;20033;-68
2022/07/10 08:20:25;;;;;;;6.93;1.58;;;;;;;14.42;65.79;101401.38;7396013;19;20026;-68
2022/07/10 08:22:54;;;;;;;8.23;2.00;;;;;;;14.36;65.67;101396.28;7396230;19;20031;-68
2022/07/10 08:25:29;;;;;;;7.30;1.73;;;;;;;14.36;66.28;101393.63;7395237;19;20497;-68
2022/07/10 08:28:03;;;;;;;9.25;1.48;;;;;;;14.41;66.46;101396.16;7394626;19;20010;-68
2022/07/10 08:30:34;;;;;;;6.35;1.77;;;;;;;14.45;65.70;101396.00;7395288;19;20021;-68
2022/07/10 08:33:03;;;;;;;6.90;1.45;;;;;;;14.50;65.95;101383.53;7395388;19;20028;-68
2022/07/10 08:35:31;;;;;;;8.98;1.75;;;;;;;14.60;66.04;101386.81;7396361;19;20035;-67
2022/07/10 08:38:01;;;;;;;8.38;1.65;;;;;;;14.72;65.66;101375.06;7395048;19;20037;-68
2022/07/10 08:40:37;;;;;;;5.38;2.00;;;;;;;14.87;63.85;101383.44;7395031;19;20022;-68
2022/07/10 08:43:06;;;;;;;7.15;1.50;;;;;;;14.95;63.17;101374.38;7396715;19;20011;-68
2022/07/10 08:45:37;;;;;;;7.15;1.38;;;;;;;14.99;60.98;101378.66;7396282;19;20014;-68
2022/07/10 08:48:09;;;;;;;5.70;1.20;;;;;;;15.03;60.78;101376.78;7394950;19;20086;-68
2022/07/10 08:50:44;;;;;;;8.80;1.10;;;;;;;15.03;61.06;101394.44;7394548;19;20035;-68
2022/07/10 08:53:19;;;;;;;6.30;1.52;;;;;;;15.03;60.95;101386.50;7395756;19;20505;-68
2022/07/10 08:55:49;;;;;;;5.15;2.08;;;;;;;15.08;61.58;101388.09;7393919;19;20416;-68
2022/07/10 08:58:19;;;;;;;8.40;1.98;;;;;;;15.09;61.48;101384.53;7394655;19;20039;-68
2022/07/10 09:00:50;;;;;;;6.70;1.52;;;;;;;15.11;61.08;101397.69;7394113;19;20541;-68
2022/07/10 09:03:18;;;;;;;8.25;2.20;;;;;;;15.15;61.65;101391.41;7394389;19;20119;-68
2022/07/10 09:05:47;;;;;;;7.95;1.45;;;;;;;15.25;62.03;101389.34;7395390;19;20031;-68
2022/07/10 09:08:27;;;;;;;6.70;1.27;;;;;;;15.30;59.97;101392.69;7394108;19;20078;-68
2022/07/10 09:11:15;;;;;;;9.07;1.60;;;;;;;15.37;61.22;101394.25;7393514;19;20083;-68
2022/07/10 09:13:52;;;;;;;6.07;1.30;;;;;;;15.44;60.42;101397.56;7394108;19;20018;-69
2022/07/10 09:16:31;;;;;;;11.25;1.42;;;;;;;15.53;60.25;101409.63;7393640;19;20025;-68
2022/07/10 09:19:18;;;;;;;10.57;1.92;;;;;;;15.59;59.27;101385.63;7393757;19;20013;-68
2022/07/10 09:21:47;;;;;;;4.63;1.42;;;;;;;15.65;59.59;101390.72;7394512;19;20526;-68
2022/07/10 09:24:19;;;;;;;5.57;1.52;;;;;;;15.64;59.46;101383.69;7393101;19;20014;-69
2022/07/10 09:27:00;;;;;;;3.75;1.20;;;;;;;15.57;59.18;101398.03;7393148;19;20505;-69
2022/07/10 09:29:29;;;;;;;5.05;1.30;;;;;;;15.59;60.38;101404.13;7394240;19;20484;-68
2022/07/10 09:32:01;;;;;;;5.15;1.50;;;;;;;15.67;60.62;101395.97;7394579;19;20019;-68
2022/07/10 09:34:40;;;;;;;8.90;1.73;;;;;;;15.70;59.69;101390.59;7394391;19;20018;-68
2022/07/10 09:37:26;;;;;;;11.45;1.83;;;;;;;15.69;60.07;101389.69;7394519;19;20034;-69
2022/07/10 09:40:00;;;;;;;11.25;1.50;;;;;;;15.69;60.09;101386.19;7393401;19;20041;-69
2022/07/10 09:42:30;;;;;;;8.50;1.63;;;;;;;15.69;59.51;101400.28;7393895;19;20082;-68
2022/07/10 09:45:20;;;;;;;4.88;1.20;;;;;;;15.69;58.72;101391.50;7392487;19;20023;-68
2022/07/10 09:48:02;;;;;;;6.32;1.52;;;;;;;15.76;58.52;101379.81;7394197;19;20369;-69
2022/07/10 09:50:33;;;;;;;5.60;1.20;;;;;;;15.84;58.67;101374.28;7392279;19;20019;-70
2022/07/10 09:53:03;;;;;;;12.30;1.33;;;;;;;15.87;58.49;101371.53;7393812;19;20489;-68
2022/07/10 09:55:34;;;;;;;9.15;1.55;;;;;;;15.89;58.63;101380.28;7393908;19;20031;-69
2022/07/10 09:58:05;;;;;;;11.15;1.48;;;;;;;15.91;58.06;101381.06;7392466;19;20373;-69
2022/07/10 10:00:35;;;;;;;6.43;1.40;;;;;;;15.92;57.50;101390.75;7392688;19;20385;-69
2022/07/10 10:03:08;;;;;;;6.43;1.77;;;;;;;15.98;58.02;101387.03;7393999;19;20018;-69
2022/07/10 10:05:42;;;;;;;6.30;1.40;;;;;;;16.05;57.93;101388.53;7394169;19;20363;-69
2022/07/10 10:08:15;;;;;;;5.18;1.80;;;;;;;16.12;57.94;101388.31;7398500;19;20387;-69
2022/07/10 10:10:48;;;;;;;6.57;1.07;;;;;;;16.26;57.71;101386.94;7399728;19;20035;-69
2022/07/10 10:13:19;;;;;;;5.57;1.30;;;;;;;16.37;56.97;101376.81;7400927;19;20038;-69
2022/07/10 10:15:50;;;;;;;4.78;1.60;;;;;;;16.51;57.01;101384.28;7400900;19;20025;-69
2022/07/10 10:18:24;;;;;;;8.25;1.77;;;;;;;16.60;55.74;101389.25;7399907;19;20078;-69
2022/07/10 10:20:52;;;;;;;8.30;2.17;;;;;;;16.66;56.71;101379.34;7398574;19;20019;-67
2022/07/10 10:23:23;;;;;;;5.45;1.17;;;;;;;16.66;56.44;101385.50;7397089;19;20485;-67
2022/07/10 10:25:53;;;;;;;8.85;1.70;;;;;;;16.72;55.88;101382.63;7398194;19;20371;-67
2022/07/10 10:28:24;;;;;;;8.27;1.20;;;;;;;16.77;55.08;101385.13;7400961;19;20025;-68
2022/07/10 10:30:55;;;;;;;6.70;1.23;;;;;;;16.80;55.14;101390.28;7397210;19;20516;-67
2022/07/10 10:33:51;;;;;;;8.27;1.48;;;;;;;16.76;54.42;101378.06;7400329;19;20018;-67
2022/07/10 10:36:47;;;;;;;6.47;1.50;;;;;;;16.65;52.19;101394.34;7400235;19;20022;-67
2022/07/10 10:39:18;;;;;;;5.03;1.25;;;;;;;16.61;54.35;101390.94;7397205;19;20018;-67
2022/07/10 10:41:52;;;;;;;8.98;1.40;;;;;;;16.58;52.23;101406.09;7396531;19;20528;-67
2022/07/10 10:44:26;;;;;;;9.70;0.90;;;;;;;16.58;51.79;101396.38;7401205;19;20019;-67
2022/07/10 10:47:01;;;;;;;;;;;;;;;16.60;50.77;101393.66;7401431;19;20019;-68
2022/07/10 10:49:53;;;;;;;5.72;1.08;;;;;;;16.68;51.30;101399.56;7399238;19;20277;-67
2022/07/10 10:52:24;;;;;;;6.63;1.33;;;;;;;16.75;52.29;101393.09;7399741;19;20376;-68
2022/07/10 10:55:16;;;;;;;6.20;1.20;;;;;;;16.78;50.97;101397.41;7399687;19;20019;-68
2022/07/10 10:57:52;;;;;;;4.03;1.00;;;;;;;16.80;51.47;101395.59;7397943;19;20584;-68
2022/07/10 11:00:37;;;;;;;6.18;1.10;;;;;;;16.87;51.77;101383.84;7398564;19;20014;-67
2022/07/10 11:03:23;;;;;;;6.85;1.40;;;;;;;16.99;52.82;101389.63;7397318;19;20015;-68
2022/07/10 11:05:54;;;;;;;9.80;2.10;;;;;;;16.99;52.35;101385.16;7398921;19;20018;-68
2022/07/10 11:08:41;;;;;;;6.28;1.27;;;;;;;16.95;52.23;101386.22;7398926;19;20014;-67
2022/07/10 11:11:40;;;;;;;8.00;1.75;;;;;;;16.95;52.28;101394.19;7396441;19;20035;-67
2022/07/10 11:14:10;;;;;;;7.95;1.60;;;;;;;16.86;51.28;101391.84;7396757;19;20014;-67
2022/07/10 11:16:40;;;;;;;5.65;1.52;;;;;;;16.81;50.24;101404.38;7398090;19;20516;-67
2022/07/10 11:19:09;;;;;;;5.43;1.30;;;;;;;16.78;50.45;101400.94;7395624;19;20037;-67
2022/07/10 11:21:49;;;;;;;6.53;1.25;;;;;;;16.87;51.11;101390.91;7398548;19;20010;-68
2022/07/10 11:24:45;;;;;;;6.50;1.55;;;;;;;16.92;50.31;101391.63;7397605;19;20014;-68
2022/07/10 11:27:27;;;;;;;5.03;1.23;;;;;;;17.02;50.74;101382.41;7396155;19;20032;-67
2022/07/10 11:30:05;;;;;;;8.32;1.50;;;;;;;17.09;49.12;101396.28;7396464;19;20035;-67
2022/07/10 11:32:33;;;;;;;5.57;1.17;;;;;;;17.21;50.31;101389.63;7398939;19;20019;-67
2022/07/10 11:35:02;;;;;;;7.55;1.67;;;;;;;17.31;49.17;101400.75;7396208;19;20078;-67
2022/07/10 11:37:33;;;;;;;6.80;1.08;;;;;;;17.42;49.80;101372.88;7398161;19;20018;-67
2022/07/10 11:40:13;;;;;;;6.93;1.08;;;;;;;17.60;49.24;101370.38;7397420;19;20099;-67
2022/07/10 11:42:54;;;;;;;5.63;1.10;;;;;;;17.70;47.13;101377.03;7396148;19;20018;-67
2022/07/10 11:45:32;;;;;;;4.95;1.58;;;;;;;17.78;47.82;101379.41;7395998;19;20022;-67
2022/07/10 11:48:02;;;;;;;7.43;2.15;;;;;;;17.89;48.50;101378.94;7396200;19;20074;-67
2022/07/10 11:50:36;;;;;;;7.00;1.20;;;;;;;17.99;48.39;101377.63;7396167;19;20018;-67
2022/07/10 11:53:08;;;;;;;6.20;1.25;;;;;;;18.14;47.59;101380.56;7396916;19;20485;-67